createdAt,value
2022-10-22T00:00:55.792Z,18.43
2022-10-22T00:03:23.939Z,18.38
2022-10-22T00:05:51.640Z,18.57
2022-10-22T00:08:19.627Z,18.88
2022-10-22T00:10:47.423Z,18.60
2022-10-22T00:13:15.640Z,18.82
2022-10-22T00:15:44.810Z,18.80
2022-10-22T00:18:12.500Z,18.82
2022-10-22T00:20:40.388Z,18.87
2022-10-22T00:23:08.373Z,19.02
2022-10-22T00:25:37.156Z,18.81
2022-10-22T00:28:05.279Z,18.55
2022-10-22T00:30:33.027Z,19.01
2022-10-22T00:33:02.048Z,18.95
2022-10-22T00:35:30.155Z,18.99
2022-10-22T00:37:57.830Z,18.61
2022-10-22T00:40:26.343Z,18.84
2022-10-22T00:42:54.179Z,18.75
2022-10-22T00:45:25.360Z,18.91
2022-10-22T00:48:01.094Z,18.95
2022-10-22T00:50:34.205Z,18.87
2022-10-22T00:53:03.436Z,18.84
2022-10-22T00:55:32.242Z,18.72
2022-10-22T00:58:02.595Z,18.80
2022-10-22T01:00:30.374Z,18.73
2022-10-22T01:02:59.123Z,18.75
2022-10-22T01:05:30.830Z,18.46
2022-10-22T01:07:58.923Z,18.64
2022-10-22T01:10:42.238Z,18.78
2022-10-22T01:13:23.826Z,18.54
2022-10-22T01:16:00.364Z,18.46
2022-10-22T01:18:38.191Z,18.30
2022-10-22T01:21:19.540Z,18.41
2022-10-22T01:24:07.152Z,18.47
2022-10-22T01:26:44.928Z,18.49
2022-10-22T01:29:18.181Z,18.42
2022-10-22T01:31:51.451Z,18.47
2022-10-22T01:34:20.179Z,18.04
2022-10-22T01:36:49.289Z,18.23
2022-10-22T01:39:18.543Z,17.76
2022-10-22T01:41:47.153Z,17.95
2022-10-22T01:44:30.570Z,18.04
2022-10-22T01:47:12.510Z,17.84
2022-10-22T01:49:53.552Z,17.91
2022-10-22T01:52:32.930Z,17.65
2022-10-22T01:55:10.891Z,17.84
2022-10-22T01:57:51.026Z,17.66
2022-10-22T02:00:21.461Z,17.41
2022-10-22T02:02:56.231Z,17.34
2022-10-22T02:05:29.471Z,17.62
2022-10-22T02:08:02.676Z,17.84
2022-10-22T02:10:31.937Z,17.60
2022-10-22T02:13:02.492Z,17.75
2022-10-22T02:15:34.366Z,17.88
2022-10-22T02:18:02.463Z,17.67
2022-10-22T02:20:32.966Z,17.58
2022-10-22T02:23:01.816Z,17.80
2022-10-22T02:25:33.514Z,17.74
2022-10-22T02:28:06.256Z,17.82
2022-10-22T02:30:37.317Z,17.73
2022-10-22T02:33:12.735Z,17.63
2022-10-22T02:35:42.770Z,17.50
2022-10-22T02:38:12.608Z,17.46
2022-10-22T02:40:40.536Z,17.32
2022-10-22T02:43:08.386Z,17.56
2022-10-22T02:45:38.287Z,17.63
2022-10-22T02:48:06.872Z,17.47
2022-10-22T02:50:34.581Z,17.40
2022-10-22T02:53:02.366Z,17.52
2022-10-22T02:55:30.284Z,17.32
2022-10-22T02:57:58.030Z,17.39
2022-10-22T03:00:25.792Z,17.49
2022-10-22T03:02:54.910Z,17.30
2022-10-22T03:05:22.623Z,17.34
2022-10-22T03:07:50.323Z,17.37
2022-10-22T03:10:18.240Z,17.53
2022-10-22T03:12:45.922Z,17.51
2022-10-22T03:15:14.307Z,17.19
2022-10-22T03:17:42.343Z,17.30
2022-10-22T03:20:11.677Z,17.31
2022-10-22T03:22:41.965Z,16.79
2022-10-22T03:25:13.369Z,17.30
2022-10-22T03:27:42.853Z,17.21
2022-10-22T03:30:12.245Z,16.91
2022-10-22T03:32:40.175Z,17.06
2022-10-22T03:35:08.478Z,16.86
2022-10-22T03:37:38.745Z,16.63
2022-10-22T03:40:08.950Z,16.36
2022-10-22T03:42:36.666Z,16.83
2022-10-22T03:45:05.169Z,16.75
2022-10-22T03:47:32.876Z,16.74
2022-10-22T03:50:00.552Z,17.05
2022-10-22T03:52:28.265Z,17.06
2022-10-22T03:54:57.735Z,17.33
2022-10-22T03:57:25.512Z,17.01
2022-10-22T03:59:53.299Z,17.10
2022-10-22T04:02:21.625Z,16.98
2022-10-22T04:04:49.305Z,16.83
2022-10-22T04:07:17.039Z,16.71
2022-10-22T04:09:44.776Z,16.83
2022-10-22T04:12:13.873Z,17.21
2022-10-22T04:14:41.613Z,17.13
2022-10-22T04:17:09.307Z,17.23
2022-10-22T04:19:37.106Z,17.15
2022-10-22T04:22:04.848Z,17.34
2022-10-22T04:24:33.546Z,17.25
2022-10-22T04:27:01.311Z,17.19
2022-10-22T04:29:30.382Z,17.32
2022-10-22T04:31:58.098Z,17.34
2022-10-22T04:34:28.516Z,17.21
2022-10-22T04:36:56.489Z,16.75
2022-10-22T04:39:24.318Z,16.92
2022-10-22T04:41:52.043Z,17.16
2022-10-22T04:44:19.736Z,16.92
2022-10-22T04:46:48.996Z,16.29
2022-10-22T04:49:16.704Z,16.62
2022-10-22T04:51:44.445Z,16.86
2022-10-22T04:54:12.129Z,16.80
2022-10-22T04:56:39.900Z,16.52
2022-10-22T04:59:09.636Z,16.67
2022-10-22T05:01:42.721Z,16.60
2022-10-22T05:04:15.425Z,16.91
2022-10-22T05:06:43.322Z,16.84
2022-10-22T05:09:14.816Z,16.51
2022-10-22T05:11:45.591Z,16.70
2022-10-22T05:14:14.195Z,16.42
2022-10-22T05:16:42.395Z,16.31
2022-10-22T05:19:16.717Z,16.56
2022-10-22T05:21:44.497Z,16.68
2022-10-22T05:24:12.310Z,16.62
2022-10-22T05:26:40.136Z,16.52
2022-10-22T05:29:08.277Z,16.46
2022-10-22T05:31:36.103Z,16.62
2022-10-22T05:34:03.866Z,16.81
2022-10-22T05:36:32.904Z,16.69
2022-10-22T05:39:01.092Z,16.42
2022-10-22T05:41:29.944Z,16.53
2022-10-22T05:43:58.609Z,16.19
2022-10-22T05:46:28.466Z,15.95
2022-10-22T05:48:57.795Z,16.34
2022-10-22T05:51:26.817Z,16.34
2022-10-22T05:53:57.897Z,16.65
2022-10-22T05:56:26.994Z,16.19
2022-10-22T05:58:55.189Z,16.39
2022-10-22T06:01:25.133Z,16.38
2022-10-22T06:03:55.361Z,16.50
2022-10-22T06:06:28.375Z,16.29
2022-10-22T06:09:02.313Z,16.38
2022-10-22T06:11:32.614Z,16.27
2022-10-22T06:14:02.861Z,16.06
2022-10-22T06:16:31.741Z,16.09
2022-10-22T06:19:00.952Z,15.85
2022-10-22T06:21:28.739Z,16.24
2022-10-22T06:23:58.762Z,16.19
2022-10-22T06:26:27.208Z,16.16
2022-10-22T06:28:55.886Z,16.17
2022-10-22T06:31:23.711Z,16.34
2022-10-22T06:33:51.432Z,16.38
2022-10-22T06:36:21.155Z,16.61
2022-10-22T06:38:48.847Z,16.67
2022-10-22T06:41:17.943Z,16.65
2022-10-22T06:43:47.497Z,16.51
2022-10-22T06:46:19.849Z,16.54
2022-10-22T06:48:50.986Z,16.73
2022-10-22T06:51:19.292Z,16.55
2022-10-22T06:53:47.007Z,16.64
2022-10-22T06:56:19.491Z,16.65
2022-10-22T06:58:48.501Z,16.81
2022-10-22T07:01:18.769Z,16.80
2022-10-22T07:03:47.166Z,17.21
2022-10-22T07:06:16.343Z,16.91
2022-10-22T07:08:44.971Z,16.98
2022-10-22T07:11:14.493Z,16.94
2022-10-22T07:13:43.921Z,16.50
2022-10-22T07:16:12.274Z,16.46
2022-10-22T07:18:41.553Z,16.98
2022-10-22T07:21:11.004Z,17.27
2022-10-22T07:23:39.149Z,16.93
2022-10-22T07:26:08.745Z,17.84
2022-10-22T07:28:38.007Z,17.81
2022-10-22T07:31:07.696Z,17.87
2022-10-22T07:33:35.906Z,17.67
2022-10-22T07:36:06.883Z,18.40
2022-10-22T07:38:35.381Z,19.19
2022-10-22T07:41:03.259Z,19.79
2022-10-22T07:43:31.331Z,21.83
2022-10-22T07:45:59.916Z,23.31
2022-10-22T07:48:29.083Z,23.10
2022-10-22T07:50:56.893Z,22.81
2022-10-22T07:53:24.721Z,24.62
2022-10-22T07:55:53.440Z,23.78
2022-10-22T07:58:22.250Z,24.35
2022-10-22T08:00:51.002Z,25.53
2022-10-22T08:03:19.756Z,26.44
2022-10-22T08:05:49.289Z,26.46
2022-10-22T08:08:18.139Z,25.82
2022-10-22T08:10:47.120Z,26.73
2022-10-22T08:13:15.439Z,27.21
2022-10-22T08:18:12.753Z,27.47
2022-10-22T08:20:41.129Z,28.18
2022-10-22T08:23:10.299Z,28.02
2022-10-22T08:25:38.084Z,28.31
2022-10-22T08:28:06.113Z,28.36
2022-10-22T08:30:34.003Z,28.15
2022-10-22T08:33:01.769Z,29.12
2022-10-22T08:35:29.539Z,28.18
2022-10-22T08:37:57.705Z,26.75
2022-10-22T08:40:31.397Z,24.32
2022-10-22T08:43:14.249Z,23.15
2022-10-22T08:45:51.641Z,22.73
2022-10-22T08:48:37.334Z,22.08
2022-10-22T08:51:05.813Z,22.05
2022-10-22T08:53:43.104Z,22.08
2022-10-22T08:56:12.250Z,21.70
2022-10-22T08:58:47.263Z,21.14
2022-10-22T09:01:18.639Z,21.08
2022-10-22T09:03:53.542Z,21.24
2022-10-22T09:06:23.691Z,21.83
2022-10-22T09:08:52.696Z,21.69
2022-10-22T09:11:26.462Z,22.04
2022-10-22T09:13:57.296Z,20.88
2022-10-22T09:16:33.408Z,21.00
2022-10-22T09:19:14.034Z,21.42
2022-10-22T09:21:51.940Z,21.74
2022-10-22T09:24:33.264Z,21.38
2022-10-22T09:27:08.964Z,20.71
2022-10-22T09:29:36.667Z,21.38
2022-10-22T09:32:04.912Z,21.35
2022-10-22T09:34:32.626Z,21.20
2022-10-22T09:37:01.965Z,20.21
2022-10-22T09:39:33.501Z,20.65
2022-10-22T09:42:02.585Z,20.98
2022-10-22T09:44:30.445Z,20.89
2022-10-22T09:46:58.231Z,21.22
2022-10-22T09:49:25.989Z,21.63
2022-10-22T09:51:56.084Z,21.31
2022-10-22T09:54:26.214Z,21.26
2022-10-22T09:56:59.134Z,21.63
2022-10-22T09:59:31.793Z,21.90
2022-10-22T10:02:19.760Z,21.65
2022-10-22T10:04:56.527Z,22.30
2022-10-22T10:07:26.661Z,21.60
2022-10-22T10:09:55.525Z,21.70
2022-10-22T10:12:36.887Z,22.00
2022-10-22T10:15:19.381Z,21.95
2022-10-22T10:17:55.368Z,22.28
2022-10-22T10:20:41.906Z,21.61
2022-10-22T10:23:23.052Z,21.02
2022-10-22T10:25:58.431Z,21.45
2022-10-22T10:28:49.070Z,21.38
2022-10-22T10:31:29.282Z,22.16
2022-10-22T10:34:07.541Z,21.12
2022-10-22T10:36:45.973Z,20.34
2022-10-22T10:39:20.693Z,21.06
2022-10-22T10:41:56.229Z,20.55
2022-10-22T10:44:49.487Z,20.61
2022-10-22T10:47:30.639Z,21.16
2022-10-22T10:50:12.242Z,20.54
2022-10-22T10:52:46.295Z,20.94
2022-10-22T10:55:23.460Z,20.58
2022-10-22T10:57:59.879Z,20.95
2022-10-22T11:00:30.731Z,20.98
2022-10-22T11:03:35.357Z,21.26
2022-10-22T11:06:08.577Z,21.20
2022-10-22T11:08:41.942Z,21.42
2022-10-22T11:13:53.908Z,21.98
2022-10-22T11:16:28.125Z,21.65
2022-10-22T11:19:03.433Z,21.35
2022-10-22T11:21:37.392Z,21.59
2022-10-22T11:24:16.681Z,20.99
2022-10-22T11:26:49.055Z,21.33
2022-10-22T11:29:23.660Z,21.90
2022-10-22T11:31:55.469Z,22.24
2022-10-22T11:34:33.552Z,21.64
2022-10-22T11:37:03.993Z,22.14
2022-10-22T11:39:35.988Z,21.50
2022-10-22T11:42:07.086Z,21.14
2022-10-22T11:44:47.579Z,21.60
2022-10-22T11:47:21.388Z,21.38
2022-10-22T11:50:00.733Z,21.61
2022-10-22T11:52:40.401Z,22.07
2022-10-22T11:55:32.272Z,22.46
2022-10-22T11:58:01.866Z,22.53
2022-10-22T12:00:41.009Z,22.19
2022-10-22T12:03:18.970Z,22.48
2022-10-22T12:05:55.106Z,22.43
2022-10-22T12:08:27.736Z,22.16
2022-10-22T12:11:05.557Z,22.06
2022-10-22T12:13:43.443Z,22.54
2022-10-22T12:16:14.240Z,21.92
2022-10-22T12:18:45.668Z,21.48
2022-10-22T12:21:16.937Z,21.83
2022-10-22T12:23:46.728Z,22.10
2022-10-22T12:26:28.047Z,21.90
2022-10-22T12:28:59.701Z,22.12
2022-10-22T12:31:27.801Z,21.48
2022-10-22T12:33:58.821Z,21.59
2022-10-22T12:36:28.646Z,21.34
2022-10-22T12:38:56.733Z,20.83
2022-10-22T12:41:31.673Z,20.76
2022-10-22T12:44:03.149Z,21.47
2022-10-22T12:46:33.867Z,21.55
2022-10-22T12:49:02.728Z,21.69
2022-10-22T12:54:09.819Z,21.78
2022-10-22T12:56:38.874Z,21.42
2022-10-22T12:59:14.959Z,22.20
2022-10-22T13:01:44.401Z,21.97
2022-10-22T13:04:22.079Z,20.95
2022-10-22T13:06:52.508Z,21.78
2022-10-22T13:09:25.229Z,21.47
2022-10-22T13:11:58.263Z,21.40
2022-10-22T13:14:29.775Z,21.84
2022-10-22T13:17:12.826Z,21.82
2022-10-22T13:19:47.392Z,21.98
2022-10-22T13:22:34.760Z,22.51
2022-10-22T13:25:21.192Z,22.47
2022-10-22T13:27:50.911Z,22.55
2022-10-22T13:30:22.415Z,23.20
2022-10-22T13:32:52.180Z,22.70
2022-10-22T13:35:24.410Z,22.64
2022-10-22T13:37:53.983Z,22.26
2022-10-22T13:40:22.380Z,22.33
2022-10-22T13:42:50.043Z,22.00
2022-10-22T13:45:18.857Z,22.13
2022-10-22T13:47:54.634Z,21.94
2022-10-22T13:50:22.873Z,21.92
2022-10-22T13:52:54.519Z,22.05
2022-10-22T13:55:25.555Z,21.61
2022-10-22T13:57:56.101Z,21.60
2022-10-22T14:00:26.889Z,21.23
2022-10-22T14:02:59.108Z,21.81
2022-10-22T14:05:27.515Z,21.86
2022-10-22T14:07:57.917Z,21.36
2022-10-22T14:10:26.152Z,21.56
2022-10-22T14:12:54.158Z,21.51
2022-10-22T14:15:23.861Z,21.42
2022-10-22T14:17:56.917Z,21.87
2022-10-22T14:20:27.803Z,21.74
2022-10-22T14:22:57.263Z,21.60
2022-10-22T14:25:26.585Z,21.38
2022-10-22T14:27:54.738Z,21.30
2022-10-22T14:30:24.566Z,20.68
2022-10-22T14:32:52.547Z,21.22
2022-10-22T14:35:23.266Z,21.59
2022-10-22T14:37:51.945Z,21.42
2022-10-22T14:40:22.270Z,21.52
2022-10-22T14:42:50.265Z,20.97
2022-10-22T14:45:21.070Z,21.41
2022-10-22T14:47:48.963Z,21.40
2022-10-22T14:50:17.257Z,21.15
2022-10-22T14:52:45.788Z,20.99
2022-10-22T14:55:15.997Z,21.22
2022-10-22T14:57:45.896Z,21.04
2022-10-22T15:00:16.483Z,21.23
2022-10-22T15:02:45.166Z,21.43
2022-10-22T15:05:13.491Z,21.46
2022-10-22T15:07:41.763Z,21.29
2022-10-22T15:10:10.812Z,21.27
2022-10-22T15:12:38.677Z,21.21
2022-10-22T15:15:08.994Z,20.62
2022-10-22T15:17:36.732Z,20.70
2022-10-22T15:20:05.827Z,20.47
2022-10-22T15:22:35.603Z,20.15
2022-10-22T15:25:04.706Z,20.14
2022-10-22T15:27:32.405Z,19.73
2022-10-22T15:30:00.278Z,20.13
2022-10-22T15:32:29.788Z,20.09
2022-10-22T15:34:57.571Z,20.37
2022-10-22T15:37:25.405Z,20.37
2022-10-22T15:39:53.122Z,20.11
2022-10-22T15:42:20.937Z,20.28
2022-10-22T15:44:48.695Z,19.91
2022-10-22T15:47:16.420Z,20.23
2022-10-22T15:49:45.890Z,20.25
2022-10-22T15:52:13.673Z,20.34
2022-10-22T15:54:43.795Z,19.94
2022-10-22T15:57:11.518Z,19.82
2022-10-22T15:59:39.222Z,19.95
2022-10-22T16:02:08.111Z,19.67
2022-10-22T16:04:35.843Z,19.53
2022-10-22T16:07:05.023Z,19.47
2022-10-22T16:09:32.747Z,19.71
2022-10-22T16:12:00.616Z,19.09
2022-10-22T16:14:28.891Z,19.35
2022-10-22T16:16:57.261Z,19.61
2022-10-22T16:19:27.173Z,19.21
2022-10-22T16:21:56.777Z,19.59
2022-10-22T16:24:25.970Z,19.52
2022-10-22T16:26:53.903Z,19.19
2022-10-22T16:29:21.729Z,19.37
2022-10-22T16:31:49.615Z,19.50
2022-10-22T16:34:17.436Z,19.47
2022-10-22T16:36:45.267Z,19.32
2022-10-22T16:39:13.085Z,19.50
2022-10-22T16:41:42.238Z,19.39
2022-10-22T16:44:12.334Z,19.49
2022-10-22T16:46:40.097Z,19.35
2022-10-22T16:49:08.446Z,19.03
2022-10-22T16:51:36.610Z,19.20
2022-10-22T16:54:06.936Z,19.20
2022-10-22T16:56:37.609Z,19.47
2022-10-22T16:59:07.820Z,19.40
2022-10-22T17:01:40.326Z,19.39
2022-10-22T17:04:09.179Z,18.87
2022-10-22T17:06:37.229Z,18.93
2022-10-22T17:09:05.691Z,19.17
2022-10-22T17:11:36.356Z,19.28
2022-10-22T17:14:07.752Z,18.94
2022-10-22T17:16:35.660Z,18.99
2022-10-22T17:19:05.205Z,19.00
2022-10-22T17:21:33.989Z,19.04
2022-10-22T17:24:01.858Z,19.06
2022-10-22T17:26:30.460Z,19.22
2022-10-22T17:28:58.755Z,19.30
2022-10-22T17:31:29.837Z,19.29
2022-10-22T17:33:59.866Z,19.24
2022-10-22T17:36:33.342Z,18.93
2022-10-22T17:39:06.538Z,19.06
2022-10-22T17:41:37.271Z,18.73
2022-10-22T17:44:09.132Z,18.81
2022-10-22T17:46:39.341Z,19.00
2022-10-22T17:49:13.370Z,18.76
2022-10-22T17:51:41.689Z,18.73
2022-10-22T17:54:10.275Z,18.87
2022-10-22T17:56:40.289Z,19.23
2022-10-22T17:59:08.709Z,19.23
2022-10-22T18:01:43.483Z,19.30
2022-10-22T18:04:14.246Z,19.30
2022-10-22T18:06:42.238Z,19.21
2022-10-22T18:09:17.215Z,19.23
2022-10-22T18:11:46.852Z,19.32
2022-10-22T18:14:14.844Z,19.40
2022-10-22T18:16:44.103Z,19.61
2022-10-22T18:19:13.530Z,19.70
2022-10-22T18:21:41.626Z,19.69
2022-10-22T18:24:10.794Z,19.68
2022-10-22T18:26:38.962Z,19.57
2022-10-22T18:29:06.743Z,19.61
2022-10-22T18:31:34.439Z,19.57
2022-10-22T18:34:03.557Z,19.63
2022-10-22T18:36:31.476Z,18.82
2022-10-22T18:39:01.120Z,18.97
2022-10-22T18:41:30.325Z,19.04
2022-10-22T18:43:59.833Z,18.54
2022-10-22T18:46:28.761Z,18.88
2022-10-22T18:48:56.922Z,19.07
2022-10-22T18:51:28.388Z,18.58
2022-10-22T18:54:11.279Z,18.84
2022-10-22T18:56:44.502Z,19.07
2022-10-22T18:59:16.259Z,19.09
2022-10-22T19:01:44.019Z,19.03
2022-10-22T19:04:13.164Z,18.89
2022-10-22T19:06:45.734Z,18.71
2022-10-22T19:09:14.786Z,18.45
2022-10-22T19:11:43.872Z,18.69
2022-10-22T19:14:11.715Z,18.78
2022-10-22T19:16:39.664Z,18.65
2022-10-22T19:19:08.580Z,18.44
2022-10-22T19:21:37.686Z,18.39
2022-10-22T19:24:07.965Z,18.47
2022-10-22T19:26:36.188Z,18.27
2022-10-22T19:29:04.928Z,18.53
2022-10-22T19:31:33.143Z,18.30
2022-10-22T19:34:02.179Z,18.43
2022-10-22T19:36:31.220Z,18.34
2022-10-22T19:38:59.793Z,18.24
2022-10-22T19:41:31.490Z,18.37
2022-10-22T19:44:00.446Z,18.35
2022-10-22T19:46:30.273Z,18.18
2022-10-22T19:48:58.102Z,18.08
2022-10-22T19:51:27.892Z,17.80
2022-10-22T19:53:59.636Z,18.28
2022-10-22T19:56:29.318Z,18.05
2022-10-22T19:58:57.051Z,17.96
2022-10-22T20:01:25.137Z,17.89
2022-10-22T20:03:53.566Z,17.81
2022-10-22T20:06:21.969Z,17.48
2022-10-22T20:08:53.766Z,17.96
2022-10-22T20:11:25.867Z,17.58
2022-10-22T20:13:55.908Z,17.98
2022-10-22T20:16:26.048Z,17.58
2022-10-22T20:18:54.203Z,17.92
2022-10-22T20:21:22.668Z,17.97
2022-10-22T20:23:54.357Z,18.03
2022-10-22T20:26:23.897Z,17.99
2022-10-22T20:28:51.904Z,18.07
2022-10-22T20:31:23.011Z,17.84
2022-10-22T20:33:51.463Z,17.90
2022-10-22T20:36:21.828Z,18.07
2022-10-22T20:38:50.165Z,17.70
2022-10-22T20:41:19.506Z,17.31
2022-10-22T20:43:47.810Z,17.69
2022-10-22T20:46:19.525Z,17.60
2022-10-22T20:48:48.953Z,17.69
2022-10-22T20:51:16.790Z,17.43
2022-10-22T20:53:44.540Z,17.64
2022-10-22T20:56:13.507Z,17.47
2022-10-22T20:58:46.493Z,17.41
2022-10-22T21:01:20.430Z,17.72
2022-10-22T21:03:50.343Z,17.87
2022-10-22T21:06:20.956Z,17.62
2022-10-22T21:08:49.010Z,17.47
2022-10-22T21:11:16.888Z,17.55
2022-10-22T21:13:45.010Z,17.64
2022-10-22T21:16:14.618Z,17.63
2022-10-22T21:18:42.454Z,17.57
2022-10-22T21:21:11.701Z,17.43
2022-10-22T21:23:40.278Z,17.22
2022-10-22T21:26:08.166Z,17.39
2022-10-22T21:28:37.301Z,17.45
2022-10-22T21:31:06.742Z,17.47
2022-10-22T21:33:37.212Z,17.43
2022-10-22T21:36:06.338Z,17.29
2022-10-22T21:38:35.914Z,16.55
2022-10-22T21:41:05.995Z,16.64
2022-10-22T21:43:33.885Z,16.64
2022-10-22T21:46:07.954Z,16.59
2022-10-22T21:48:36.660Z,16.80
2022-10-22T21:51:08.518Z,16.55
2022-10-22T21:53:38.319Z,16.62
2022-10-22T21:56:07.250Z,17.04
2022-10-22T21:58:35.940Z,16.78
2022-10-22T22:01:04.572Z,16.29
2022-10-22T22:03:32.341Z,16.43
2022-10-22T22:06:01.136Z,16.27
2022-10-22T22:08:29.449Z,16.37
2022-10-22T22:11:04.211Z,15.91
2022-10-22T22:13:32.486Z,16.05
2022-10-22T22:16:01.546Z,16.43
2022-10-22T22:18:30.299Z,16.27
2022-10-22T22:20:58.324Z,16.39
2022-10-22T22:23:26.656Z,16.63
2022-10-22T22:25:54.354Z,16.45
2022-10-22T22:28:23.446Z,16.19
2022-10-22T22:30:51.227Z,16.12
2022-10-22T22:33:19.090Z,16.54
2022-10-22T22:35:46.808Z,16.40
2022-10-22T22:38:14.705Z,16.41
2022-10-22T22:40:43.232Z,16.33
2022-10-22T22:43:12.093Z,16.07
2022-10-22T22:45:41.144Z,16.04
2022-10-22T22:48:09.021Z,15.83
2022-10-22T22:50:37.157Z,16.16
2022-10-22T22:53:04.923Z,16.06
2022-10-22T22:55:32.893Z,16.38
2022-10-22T22:58:00.631Z,16.09
2022-10-22T23:00:28.470Z,16.07
2022-10-22T23:02:58.025Z,15.85
2022-10-22T23:05:25.832Z,15.99
2022-10-22T23:07:54.109Z,16.11
2022-10-22T23:10:21.941Z,16.07
2022-10-22T23:12:50.606Z,15.78
2022-10-22T23:15:18.500Z,15.60
2022-10-22T23:17:46.241Z,15.94
2022-10-22T23:20:15.366Z,15.74
2022-10-22T23:22:43.373Z,15.39
2022-10-22T23:25:11.320Z,15.07
2022-10-22T23:27:39.034Z,15.63
2022-10-22T23:30:08.054Z,15.63
2022-10-22T23:32:35.694Z,15.64
2022-10-22T23:35:03.377Z,15.55
2022-10-22T23:37:32.608Z,15.44
2022-10-22T23:40:00.322Z,15.43
2022-10-22T23:42:28.045Z,15.52
2022-10-22T23:44:55.895Z,15.77
2022-10-22T23:47:23.616Z,15.61
2022-10-22T23:49:51.294Z,15.89
2022-10-22T23:52:19.022Z,15.64
2022-10-22T23:54:49.603Z,15.13
2022-10-22T23:57:17.307Z,15.47
2022-10-22T23:59:45.071Z,15.24
